METAR AND TAF INFORMATION
METAR FOR UATE
ADDS - METARS form results

(0217 UTC 18 November 2019)
Data provider http://aviationweather.gov/metar/data/
 
METAR text: UATE 180200Z 05005MPS CAVOK M05/M08 Q1033 R30/0///70 NOSIG RMK QFE773/1031
Conditions at: UATE (AKTAU KAZAKHSTAN, KZ) observed 0200 UTC 18 November 2019
Temperature: -5.0°C (23°F)
Dewpoint: -8.0°C (18°F) [RH = 79%]
Pressure (altimeter): 30.50 inches Hg (1033.0 mb)
Winds: from the NE (50 degrees) at 12 MPH (10 knots; 5.1 m/s)
Visibility: 6 or more miles (10+ km)
Ceiling: ceiling and visibility are OK
Clouds: unknown
Weather: no significant weather observed at this time

METAR text: UATE 180130Z 05005MPS CAVOK M06/M08 Q1033 R30/0///70 NOSIG RMK QFE773/1031
Conditions at: UATE (AKTAU KAZAKHSTAN, KZ) observed 0130 UTC 18 November 2019
Temperature: -6.0°C (21°F)
Dewpoint: -8.0°C (18°F) [RH = 86%]
Pressure (altimeter): 30.50 inches Hg (1033.0 mb)
Winds: from the NE (50 degrees) at 12 MPH (10 knots; 5.1 m/s)
Visibility: 6 or more miles (10+ km)
Ceiling: ceiling and visibility are OK
Clouds: unknown
Weather: no significant weather observed at this time

Forecast for: UATE (AKTAU KAZAKHSTAN, KZ)
Text: TAF UATE 172302Z 1800/1824 09007MPS 9999 SCT015 TX08/1809Z TNM07/1802Z
Forecast period: 0000 UTC 18 November 2019 to 0000 UTC 19 November 2019
Forecast type: FROM: standard forecast or significant change
Winds: from the E (90 degrees) at 16 MPH (14 knots; 7.2 m/s)
Visibility: 6 or more miles 10+ km)
Ceiling: at least 12,000 feet AGL
Clouds: scattered clouds at 1500 feet AGL
Weather: no significant weather forecast for this period

 AIRPORT MAP

 RUNWAY INFORMATION

 AIRPORT FREQUENCIES
Type A/G Name RDO Frequency 895.1 MHZ
Type APP Name APP Frequency 124.2 MHZ
Type TWR Name TWR Frequency 120.7 MHZ

 AIRPORT NEAR NAVIGATION AIDS
Type VOR-DME Name Aktau Frequency 113300 KHZ
Type NDB Name Aktau Frequency 670 KHZ
Type NDB Name Aktau Frequency 670 KHZ



2018 Air Astana Virtual Airline